sensor_id;sensor_type;location;lat;lon;timestamp;pressure;altitude;pressure_sealevel;temperature;humidity
17383;BME280;8809;51.892;8.384;2024-02-16T00:01:06;100146.22;;;11.58;100.00
17383;BME280;8809;51.892;8.384;2024-02-16T00:03:33;100146.28;;;11.60;100.00
17383;BME280;8809;51.892;8.384;2024-02-16T00:06:01;100140.56;;;11.73;100.00
17383;BME280;8809;51.892;8.384;2024-02-16T00:08:28;100138.81;;;11.72;100.00
17383;BME280;8809;51.892;8.384;2024-02-16T00:10:55;100150.66;;;11.61;100.00
17383;BME280;8809;51.892;8.384;2024-02-16T00:13:23;100148.78;;;11.57;100.00
17383;BME280;8809;51.892;8.384;2024-02-16T00:15:51;100146.38;;;11.63;100.00
17383;BME280;8809;51.892;8.384;2024-02-16T00:18:18;100136.84;;;11.65;100.00
17383;BME280;8809;51.892;8.384;2024-02-16T00:20:45;100145.44;;;11.61;100.00
17383;BME280;8809;51.892;8.384;2024-02-16T00:23:12;100147.28;;;11.65;100.00
17383;BME280;8809;51.892;8.384;2024-02-16T00:25:39;100138.72;;;11.69;100.00
17383;BME280;8809;51.892;8.384;2024-02-16T00:28:08;100142.31;;;11.72;100.00
17383;BME280;8809;51.892;8.384;2024-02-16T00:30:35;100147.50;;;11.71;100.00
17383;BME280;8809;51.892;8.384;2024-02-16T00:33:04;100147.78;;;11.80;100.00
17383;BME280;8809;51.892;8.384;2024-02-16T00:35:32;100145.22;;;11.81;100.00
17383;BME280;8809;51.892;8.384;2024-02-16T00:37:59;100142.47;;;11.77;100.00
17383;BME280;8809;51.892;8.384;2024-02-16T00:40:26;100144.03;;;11.72;100.00
17383;BME280;8809;51.892;8.384;2024-02-16T00:42:54;100142.34;;;11.74;100.00
17383;BME280;8809;51.892;8.384;2024-02-16T00:45:22;100143.41;;;11.79;100.00
17383;BME280;8809;51.892;8.384;2024-02-16T00:47:48;100140.75;;;11.77;100.00
17383;BME280;8809;51.892;8.384;2024-02-16T00:50:17;100140.38;;;11.67;100.00
17383;BME280;8809;51.892;8.384;2024-02-16T00:52:44;100139.66;;;11.71;100.00
17383;BME280;8809;51.892;8.384;2024-02-16T00:55:11;100139.66;;;11.71;100.00
17383;BME280;8809;51.892;8.384;2024-02-16T00:57:38;100140.38;;;11.67;100.00
17383;BME280;8809;51.892;8.384;2024-02-16T01:00:07;100143.78;;;11.63;100.00
17383;BME280;8809;51.892;8.384;2024-02-16T01:02:35;100138.44;;;11.60;100.00
17383;BME280;8809;51.892;8.384;2024-02-16T01:05:03;100136.41;;;11.49;100.00
17383;BME280;8809;51.892;8.384;2024-02-16T01:07:31;100136.41;;;11.49;100.00
17383;BME280;8809;51.892;8.384;2024-02-16T01:09:58;100133.78;;;11.49;100.00
17383;BME280;8809;51.892;8.384;2024-02-16T01:12:28;100139.84;;;11.48;100.00
17383;BME280;8809;51.892;8.384;2024-02-16T01:14:56;100135.47;;;11.47;100.00
17383;BME280;8809;51.892;8.384;2024-02-16T01:17:24;100132.22;;;11.56;100.00
17383;BME280;8809;51.892;8.384;2024-02-16T01:19:51;100131.84;;;11.44;100.00
17383;BME280;8809;51.892;8.384;2024-02-16T01:22:18;100132.66;;;11.41;100.00
17383;BME280;8809;51.892;8.384;2024-02-16T01:24:47;100128.34;;;11.42;100.00
17383;BME280;8809;51.892;8.384;2024-02-16T01:27:16;100129.22;;;11.42;100.00
17383;BME280;8809;51.892;8.384;2024-02-16T01:29:43;100128.22;;;11.39;100.00
17383;BME280;8809;51.892;8.384;2024-02-16T01:32:10;100129.91;;;11.37;100.00
17383;BME280;8809;51.892;8.384;2024-02-16T01:34:37;100128.22;;;11.39;100.00
17383;BME280;8809;51.892;8.384;2024-02-16T01:37:05;100129.00;;;11.36;100.00
17383;BME280;8809;51.892;8.384;2024-02-16T01:39:32;100127.84;;;11.27;100.00
17383;BME280;8809;51.892;8.384;2024-02-16T01:42:00;100127.84;;;11.27;100.00
17383;BME280;8809;51.892;8.384;2024-02-16T01:44:27;100124.28;;;11.25;100.00
17383;BME280;8809;51.892;8.384;2024-02-16T01:46:54;100125.28;;;11.28;100.00
17383;BME280;8809;51.892;8.384;2024-02-16T01:49:21;100125.28;;;11.28;100.00
17383;BME280;8809;51.892;8.384;2024-02-16T01:51:49;100122.00;;;11.34;100.00
17383;BME280;8809;51.892;8.384;2024-02-16T01:54:16;100125.28;;;11.28;100.00
17383;BME280;8809;51.892;8.384;2024-02-16T01:56:44;100122.56;;;11.24;100.00
17383;BME280;8809;51.892;8.384;2024-02-16T01:59:12;100123.22;;;11.18;100.00
17383;BME280;8809;51.892;8.384;2024-02-16T02:01:40;100117.91;;;11.15;100.00
17383;BME280;8809;51.892;8.384;2024-02-16T02:04:07;100120.50;;;11.13;100.00
17383;BME280;8809;51.892;8.384;2024-02-16T02:06:34;100115.41;;;11.18;100.00
17383;BME280;8809;51.892;8.384;2024-02-16T02:09:01;100116.44;;;11.23;100.00
17383;BME280;8809;51.892;8.384;2024-02-16T02:11:28;100117.28;;;11.22;100.00
17383;BME280;8809;51.892;8.384;2024-02-16T02:13:55;100106.84;;;11.22;100.00
17383;BME280;8809;51.892;8.384;2024-02-16T02:16:24;100108.22;;;11.39;100.00
17383;BME280;8809;51.892;8.384;2024-02-16T02:18:52;100106.16;;;11.29;100.00
17383;BME280;8809;51.892;8.384;2024-02-16T02:21:19;100104.41;;;11.28;100.00
17383;BME280;8809;51.892;8.384;2024-02-16T02:23:48;100100.78;;;11.23;100.00
17383;BME280;8809;51.892;8.384;2024-02-16T02:26:15;100096.47;;;11.25;100.00
17383;BME280;8809;51.892;8.384;2024-02-16T02:28:42;100093.28;;;11.07;100.00
17383;BME280;8809;51.892;8.384;2024-02-16T02:31:09;100090.72;;;11.08;100.00
17383;BME280;8809;51.892;8.384;2024-02-16T02:33:36;100089.06;;;11.10;100.00
17383;BME280;8809;51.892;8.384;2024-02-16T02:36:04;100084.81;;;11.14;100.00
17383;BME280;8809;51.892;8.384;2024-02-16T02:38:31;100080.28;;;11.08;100.00
17383;BME280;8809;51.892;8.384;2024-02-16T02:41:00;100074.56;;;11.20;100.00
17383;BME280;8809;51.892;8.384;2024-02-16T02:43:27;100075.16;;;11.11;100.00
17383;BME280;8809;51.892;8.384;2024-02-16T02:45:55;100072.41;;;11.07;100.00
17383;BME280;8809;51.892;8.384;2024-02-16T02:48:22;100070.13;;;11.18;100.00
17383;BME280;8809;51.892;8.384;2024-02-16T02:50:49;100071.06;;;11.20;100.00
17383;BME280;8809;51.892;8.384;2024-02-16T02:53:16;100060.78;;;11.24;100.00
17383;BME280;8809;51.892;8.384;2024-02-16T02:55:43;100056.41;;;11.25;100.00
17383;BME280;8809;51.892;8.384;2024-02-16T02:58:12;100060.06;;;11.30;100.00
17383;BME280;8809;51.892;8.384;2024-02-16T03:00:39;100058.94;;;11.22;100.00
17383;BME280;8809;51.892;8.384;2024-02-16T03:03:06;100060.66;;;11.21;100.00
17383;BME280;8809;51.892;8.384;2024-02-16T03:05:33;100057.84;;;11.13;100.00
17383;BME280;8809;51.892;8.384;2024-02-16T03:08:00;100055.34;;;11.18;100.00
17383;BME280;8809;51.892;8.384;2024-02-16T03:10:28;100055.16;;;11.12;100.00
17383;BME280;8809;51.892;8.384;2024-02-16T03:13:00;100053.56;;;11.17;100.00
17383;BME280;8809;51.892;8.384;2024-02-16T03:15:29;100052.63;;;11.13;100.00
17383;BME280;8809;51.892;8.384;2024-02-16T03:17:56;100048.19;;;11.11;100.00
17383;BME280;8809;51.892;8.384;2024-02-16T03:20:23;100046.63;;;11.18;100.00
17383;BME280;8809;51.892;8.384;2024-02-16T03:22:50;100051.72;;;11.13;100.00
17383;BME280;8809;51.892;8.384;2024-02-16T03:25:18;100046.50;;;11.13;100.00
17383;BME280;8809;51.892;8.384;2024-02-16T03:27:46;100048.19;;;11.11;100.00
17383;BME280;8809;51.892;8.384;2024-02-16T03:30:13;100044.78;;;11.15;100.00
17383;BME280;8809;51.892;8.384;2024-02-16T03:32:41;100043.97;;;11.16;100.00
17383;BME280;8809;51.892;8.384;2024-02-16T03:35:08;100035.84;;;11.07;100.00
17383;BME280;8809;51.892;8.384;2024-02-16T03:37:35;100041.22;;;11.11;100.00
17383;BME280;8809;51.892;8.384;2024-02-16T03:40:05;100047.28;;;11.10;100.00
17383;BME280;8809;51.892;8.384;2024-02-16T03:42:34;100037.91;;;11.17;100.00
17383;BME280;8809;51.892;8.384;2024-02-16T03:45:02;100053.72;;;11.22;100.00
17383;BME280;8809;51.892;8.384;2024-02-16T03:47:29;100049.19;;;11.16;100.00
17383;BME280;8809;51.892;8.384;2024-02-16T03:49:57;100049.44;;;11.24;100.00
17383;BME280;8809;51.892;8.384;2024-02-16T03:52:24;100040.41;;;11.12;100.00
17383;BME280;8809;51.892;8.384;2024-02-16T03:54:51;100046.50;;;11.13;100.00
17383;BME280;8809;51.892;8.384;2024-02-16T03:57:18;100049.91;;;11.10;100.00
17383;BME280;8809;51.892;8.384;2024-02-16T03:59:45;100053.44;;;11.12;100.00
17383;BME280;8809;51.892;8.384;2024-02-16T04:02:13;100047.47;;;11.16;100.00
17383;BME280;8809;51.892;8.384;2024-02-16T04:04:40;100052.41;;;11.07;100.00
17383;BME280;8809;51.892;8.384;2024-02-16T04:07:08;100053.28;;;11.08;100.00
17383;BME280;8809;51.892;8.384;2024-02-16T04:09:35;100056.41;;;10.96;100.00
17383;BME280;8809;51.892;8.384;2024-02-16T04:12:02;100053.50;;;10.87;100.00
17383;BME280;8809;51.892;8.384;2024-02-16T04:14:29;100053.13;;;11.02;100.00
17383;BME280;8809;51.892;8.384;2024-02-16T04:16:58;100053.34;;;11.09;100.00
17383;BME280;8809;51.892;8.384;2024-02-16T04:19:25;100049.72;;;11.04;100.00
17383;BME280;8809;51.892;8.384;2024-02-16T04:21:52;100049.25;;;11.18;100.00
17383;BME280;8809;51.892;8.384;2024-02-16T04:24:21;100050.56;;;11.03;100.00
17383;BME280;8809;51.892;8.384;2024-02-16T04:26:48;100048.69;;;10.99;100.00
17383;BME280;8809;51.892;8.384;2024-02-16T04:29:15;100042.78;;;11.05;100.00
17383;BME280;8809;51.892;8.384;2024-02-16T04:31:42;100056.13;;;11.15;100.00
17383;BME280;8809;51.892;8.384;2024-02-16T04:34:11;100053.41;;;11.11;100.00
17383;BME280;8809;51.892;8.384;2024-02-16T04:36:38;100049.78;;;11.07;100.00
17383;BME280;8809;51.892;8.384;2024-02-16T04:39:05;100047.84;;;11.00;100.00
17383;BME280;8809;51.892;8.384;2024-02-16T04:41:34;100036.84;;;11.10;100.00
17383;BME280;8809;51.892;8.384;2024-02-16T04:44:01;100044.13;;;11.21;100.00
17383;BME280;8809;51.892;8.384;2024-02-16T04:46:29;100053.41;;;11.11;100.00
17383;BME280;8809;51.892;8.384;2024-02-16T04:48:55;100057.28;;;11.25;100.00
17383;BME280;8809;51.892;8.384;2024-02-16T04:51:22;100063.41;;;11.26;100.00
17383;BME280;8809;51.892;8.384;2024-02-16T04:53:49;100060.47;;;11.15;100.00
17383;BME280;8809;51.892;8.384;2024-02-16T04:56:16;100055.94;;;11.09;100.00
17383;BME280;8809;51.892;8.384;2024-02-16T04:58:45;100055.22;;;11.13;100.00
17383;BME280;8809;51.892;8.384;2024-02-16T05:01:13;100048.44;;;11.20;100.00
17383;BME280;8809;51.892;8.384;2024-02-16T05:03:40;100039.50;;;11.12;100.00
17383;BME280;8809;51.892;8.384;2024-02-16T05:06:07;100040.34;;;11.11;100.00
17383;BME280;8809;51.892;8.384;2024-02-16T05:08:34;100040.63;;;11.20;100.00
17383;BME280;8809;51.892;8.384;2024-02-16T05:11:01;100044.13;;;11.21;100.00
17383;BME280;8809;51.892;8.384;2024-02-16T05:13:28;100044.13;;;11.21;100.00
17383;BME280;8809;51.892;8.384;2024-02-16T05:15:56;100038.06;;;11.22;100.00
17383;BME280;8809;51.892;8.384;2024-02-16T05:18:23;100047.41;;;11.15;100.00
17383;BME280;8809;51.892;8.384;2024-02-16T05:20:50;100046.63;;;11.18;100.00
17383;BME280;8809;51.892;8.384;2024-02-16T05:23:17;100036.78;;;11.09;100.00
17383;BME280;8809;51.892;8.384;2024-02-16T05:25:45;100042.91;;;11.09;100.00
17383;BME280;8809;51.892;8.384;2024-02-16T05:28:12;100030.91;;;11.16;100.00
17383;BME280;8809;51.892;8.384;2024-02-16T05:30:39;100025.13;;;11.26;100.00
17383;BME280;8809;51.892;8.384;2024-02-16T05:33:07;100032.69;;;11.17;100.00
17383;BME280;8809;51.892;8.384;2024-02-16T05:35:34;100031.75;;;11.15;100.00
17383;BME280;8809;51.892;8.384;2024-02-16T05:38:06;100021.41;;;11.18;100.00
17383;BME280;8809;51.892;8.384;2024-02-16T05:40:46;100020.66;;;11.22;100.00
17383;BME280;8809;51.892;8.384;2024-02-16T05:43:19;100016.34;;;11.23;100.00
17383;BME280;8809;51.892;8.384;2024-02-16T05:45:46;100036.34;;;11.22;100.00
17383;BME280;8809;51.892;8.384;2024-02-16T05:48:14;100022.44;;;11.23;100.00
17383;BME280;8809;51.892;8.384;2024-02-16T05:50:42;100019.91;;;11.26;100.00
17383;BME280;8809;51.892;8.384;2024-02-16T05:53:09;100021.66;;;11.27;100.00
17383;BME280;8809;51.892;8.384;2024-02-16T05:55:36;100024.34;;;11.29;100.00
17383;BME280;8809;51.892;8.384;2024-02-16T05:58:04;100024.44;;;11.32;100.00
17383;BME280;8809;51.892;8.384;2024-02-16T06:00:32;100021.00;;;11.33;100.00
17383;BME280;8809;51.892;8.384;2024-02-16T06:03:00;100020.88;;;11.30;100.00
17383;BME280;8809;51.892;8.384;2024-02-16T06:05:28;100021.00;;;11.34;100.00
17383;BME280;8809;51.892;8.384;2024-02-16T06:07:55;100028.09;;;11.38;100.00
17383;BME280;8809;51.892;8.384;2024-02-16T06:10:24;100022.03;;;11.39;100.00
17383;BME280;8809;51.892;8.384;2024-02-16T06:12:51;100028.72;;;11.30;100.00
17383;BME280;8809;51.892;8.384;2024-02-16T06:15:18;100030.13;;;11.48;100.00
17383;BME280;8809;51.892;8.384;2024-02-16T06:17:45;100032.31;;;11.65;100.00
17383;BME280;8809;51.892;8.384;2024-02-16T06:20:15;100041.25;;;11.73;100.00
17383;BME280;8809;51.892;8.384;2024-02-16T06:22:43;100038.06;;;11.22;100.00
17383;BME280;8809;51.892;8.384;2024-02-16T06:25:10;100042.00;;;11.09;100.00
17383;BME280;8809;51.892;8.384;2024-02-16T06:27:37;100044.63;;;11.09;100.00
17383;BME280;8809;51.892;8.384;2024-02-16T06:30:06;100036.00;;;11.11;100.00
17383;BME280;8809;51.892;8.384;2024-02-16T06:32:33;100037.34;;;10.99;100.00
17383;BME280;8809;51.892;8.384;2024-02-16T06:35:00;100044.56;;;10.79;100.00
17383;BME280;8809;51.892;8.384;2024-02-16T06:37:27;100048.81;;;10.75;100.00
17383;BME280;8809;51.892;8.384;2024-02-16T06:39:55;100057.75;;;10.84;100.00
17383;BME280;8809;51.892;8.384;2024-02-16T06:42:22;100050.88;;;10.86;100.00
17383;BME280;8809;51.892;8.384;2024-02-16T06:44:49;100056.22;;;10.90;100.00
17383;BME280;8809;51.892;8.384;2024-02-16T06:47:17;100057.75;;;10.84;100.00
17383;BME280;8809;51.892;8.384;2024-02-16T06:49:46;100053.78;;;10.95;100.00
17383;BME280;8809;51.892;8.384;2024-02-16T06:52:13;100056.38;;;10.95;100.00
17383;BME280;8809;51.892;8.384;2024-02-16T06:54:40;100063.41;;;10.97;100.00
17383;BME280;8809;51.892;8.384;2024-02-16T06:57:08;100067.28;;;11.10;100.00
17383;BME280;8809;51.892;8.384;2024-02-16T06:59:35;100072.69;;;11.16;100.00
17383;BME280;8809;51.892;8.384;2024-02-16T07:02:02;100072.06;;;11.23;100.00
17383;BME280;8809;51.892;8.384;2024-02-16T07:04:29;100086.28;;;11.34;100.00
17383;BME280;8809;51.892;8.384;2024-02-16T07:06:56;100080.16;;;11.32;100.00
17383;BME280;8809;51.892;8.384;2024-02-16T07:09:23;100080.00;;;11.28;100.00
17383;BME280;8809;51.892;8.384;2024-02-16T07:11:50;100076.59;;;11.30;100.00
17383;BME280;8809;51.892;8.384;2024-02-16T07:14:19;100082.22;;;11.42;100.00
17383;BME280;8809;51.892;8.384;2024-02-16T07:16:46;100090.16;;;11.47;100.00
17383;BME280;8809;51.892;8.384;2024-02-16T07:19:13;100096.84;;;11.37;100.00
17383;BME280;8809;51.892;8.384;2024-02-16T07:21:40;100096.94;;;11.40;100.00
17383;BME280;8809;51.892;8.384;2024-02-16T07:24:07;100097.00;;;11.42;100.00
17383;BME280;8809;51.892;8.384;2024-02-16T07:26:35;100090.84;;;11.40;100.00
17383;BME280;8809;51.892;8.384;2024-02-16T07:29:03;100102.94;;;11.38;100.00
17383;BME280;8809;51.892;8.384;2024-02-16T07:31:33;100097.69;;;11.36;100.00
17383;BME280;8809;51.892;8.384;2024-02-16T07:34:01;100106.72;;;11.47;100.00
17383;BME280;8809;51.892;8.384;2024-02-16T07:36:28;100095.28;;;11.42;100.00
17383;BME280;8809;51.892;8.384;2024-02-16T07:38:56;100092.03;;;11.51;100.00
17383;BME280;8809;51.892;8.384;2024-02-16T07:41:24;100088.72;;;11.57;100.00
17383;BME280;8809;51.892;8.384;2024-02-16T07:43:53;100091.59;;;11.66;100.00
17383;BME280;8809;51.892;8.384;2024-02-16T07:46:20;100086.28;;;11.63;100.00
17383;BME280;8809;51.892;8.384;2024-02-16T07:48:50;100077.38;;;11.56;100.00
17383;BME280;8809;51.892;8.384;2024-02-16T07:51:17;100072.94;;;11.53;100.00
17383;BME280;8809;51.892;8.384;2024-02-16T07:53:44;100073.53;;;11.43;100.00
17383;BME280;8809;51.892;8.384;2024-02-16T07:56:13;100075.47;;;11.50;100.00
17383;BME280;8809;51.892;8.384;2024-02-16T07:58:41;100071.34;;;11.59;100.00
17383;BME280;8809;51.892;8.384;2024-02-16T08:01:08;100071.25;;;11.56;100.00
17383;BME280;8809;51.892;8.384;2024-02-16T08:03:37;100077.63;;;11.65;100.00
17383;BME280;8809;51.892;8.384;2024-02-16T08:06:09;100076.09;;;11.72;100.00
17383;BME280;8809;51.892;8.384;2024-02-16T08:08:36;100077.97;;;11.76;100.00
17383;BME280;8809;51.892;8.384;2024-02-16T08:11:04;100081.44;;;11.75;100.00
17383;BME280;8809;51.892;8.384;2024-02-16T08:13:32;100076.41;;;11.81;100.00
17383;BME280;8809;51.892;8.384;2024-02-16T08:15:59;100085.38;;;11.92;100.00
17383;BME280;8809;51.892;8.384;2024-02-16T08:18:26;100086.16;;;11.88;100.00
17383;BME280;8809;51.892;8.384;2024-02-16T08:20:53;100078.69;;;12.00;100.00
17383;BME280;8809;51.892;8.384;2024-02-16T08:23:21;100080.69;;;12.10;100.00
17383;BME280;8809;51.892;8.384;2024-02-16T08:25:49;100091.31;;;12.16;100.00
17383;BME280;8809;51.892;8.384;2024-02-16T08:28:16;100096.50;;;12.15;100.00
17383;BME280;8809;51.892;8.384;2024-02-16T08:30:43;100107.94;;;12.18;100.00
17383;BME280;8809;51.892;8.384;2024-02-16T08:33:10;100114.34;;;12.30;100.00
17383;BME280;8809;51.892;8.384;2024-02-16T08:35:38;100108.38;;;12.35;100.00
17383;BME280;8809;51.892;8.384;2024-02-16T08:38:05;100119.88;;;12.42;100.00
17383;BME280;8809;51.892;8.384;2024-02-16T08:40:37;100121.88;;;12.52;100.00
17383;BME280;8809;51.892;8.384;2024-02-16T08:43:05;100128.97;;;12.56;100.00
17383;BME280;8809;51.892;8.384;2024-02-16T08:45:34;100135.28;;;12.64;100.00
17383;BME280;8809;51.892;8.384;2024-02-16T08:48:01;100138.72;;;12.61;100.00
17383;BME280;8809;51.892;8.384;2024-02-16T08:50:29;100146.59;;;12.63;100.00
17383;BME280;8809;51.892;8.384;2024-02-16T08:52:56;100146.94;;;12.75;100.00
17383;BME280;8809;51.892;8.384;2024-02-16T08:55:23;100146.53;;;12.94;100.00
17383;BME280;8809;51.892;8.384;2024-02-16T08:57:52;100145.75;;;12.98;100.00
17383;BME280;8809;51.892;8.384;2024-02-16T09:00:19;100154.63;;;13.04;100.00
17383;BME280;8809;51.892;8.384;2024-02-16T09:02:46;100158.34;;;13.13;100.00
17383;BME280;8809;51.892;8.384;2024-02-16T09:05:14;100163.22;;;13.32;100.00
17383;BME280;8809;51.892;8.384;2024-02-16T09:07:41;100166.22;;;13.49;100.00
17383;BME280;8809;51.892;8.384;2024-02-16T09:10:08;100160.25;;;13.55;100.00
17383;BME280;8809;51.892;8.384;2024-02-16T09:12:36;100159.34;;;13.54;100.00
17383;BME280;8809;51.892;8.384;2024-02-16T09:15:05;100165.50;;;13.56;100.00
17383;BME280;8809;51.892;8.384;2024-02-16T09:17:34;100167.38;;;13.62;100.00
17383;BME280;8809;51.892;8.384;2024-02-16T09:20:01;100168.47;;;13.71;100.00
17383;BME280;8809;51.892;8.384;2024-02-16T09:22:30;100177.41;;;13.81;100.00
17383;BME280;8809;51.892;8.384;2024-02-16T09:24:57;100182.69;;;13.83;100.00
17383;BME280;8809;51.892;8.384;2024-02-16T09:27:26;100183.78;;;13.92;100.00
17383;BME280;8809;51.892;8.384;2024-02-16T09:29:54;100191.78;;;13.98;100.00
17383;BME280;8809;51.892;8.384;2024-02-16T09:32:23;100179.72;;;14.08;100.00
17383;BME280;8809;51.892;8.384;2024-02-16T09:34:50;100193.00;;;14.16;100.00
17383;BME280;8809;51.892;8.384;2024-02-16T09:37:17;100204.56;;;14.25;100.00
17383;BME280;8809;51.892;8.384;2024-02-16T09:39:44;100206.41;;;14.29;100.00
17383;BME280;8809;51.892;8.384;2024-02-16T09:42:11;100217.03;;;14.35;100.00
17383;BME280;8809;51.892;8.384;2024-02-16T09:44:41;100217.19;;;14.43;100.00
17383;BME280;8809;51.892;8.384;2024-02-16T09:47:14;100219.97;;;14.49;100.00
17383;BME280;8809;51.892;8.384;2024-02-16T09:49:47;100217.44;;;14.55;100.00
17383;BME280;8809;51.892;8.384;2024-02-16T09:52:14;100213.16;;;14.59;100.00
17383;BME280;8809;51.892;8.384;2024-02-16T09:54:42;100218.41;;;14.59;100.00
17383;BME280;8809;51.892;8.384;2024-02-16T09:57:09;100216.81;;;14.67;100.00
17383;BME280;8809;51.892;8.384;2024-02-16T09:59:36;100216.94;;;14.74;100.00
17383;BME280;8809;51.892;8.384;2024-02-16T10:02:04;100215.13;;;14.72;100.00
17383;BME280;8809;51.892;8.384;2024-02-16T10:04:32;100225.19;;;14.94;100.00
17383;BME280;8809;51.892;8.384;2024-02-16T10:07:01;100230.59;;;15.03;100.00
17383;BME280;8809;51.892;8.384;2024-02-16T10:09:29;100231.88;;;15.27;100.00
17383;BME280;8809;51.892;8.384;2024-02-16T10:11:58;100236.44;;;15.37;100.00
17383;BME280;8809;51.892;8.384;2024-02-16T10:14:25;100242.69;;;15.45;100.00
17383;BME280;8809;51.892;8.384;2024-02-16T10:17:04;100240.34;;;15.62;100.00
17383;BME280;8809;51.892;8.384;2024-02-16T10:19:33;100254.72;;;15.83;100.00
17383;BME280;8809;51.892;8.384;2024-02-16T10:22:07;100263.66;;;15.94;100.00
17383;BME280;8809;51.892;8.384;2024-02-16T10:24:35;100256.91;;;16.13;100.00
17383;BME280;8809;51.892;8.384;2024-02-16T10:27:04;100260.44;;;16.14;100.00
17383;BME280;8809;51.892;8.384;2024-02-16T10:29:32;100269.16;;;16.11;100.00
17383;BME280;8809;51.892;8.384;2024-02-16T10:32:00;100271.78;;;16.11;100.00
17383;BME280;8809;51.892;8.384;2024-02-16T10:34:28;100275.25;;;16.09;100.00
17383;BME280;8809;51.892;8.384;2024-02-16T10:36:57;100276.13;;;16.08;100.00
17383;BME280;8809;51.892;8.384;2024-02-16T10:39:26;100276.25;;;16.17;100.00
17383;BME280;8809;51.892;8.384;2024-02-16T10:41:54;100272.75;;;16.18;100.00
17383;BME280;8809;51.892;8.384;2024-02-16T10:44:28;100279.84;;;16.22;100.00
17383;BME280;8809;51.892;8.384;2024-02-16T10:46:55;100273.72;;;16.24;100.00
17383;BME280;8809;51.892;8.384;2024-02-16T10:49:23;100281.69;;;16.29;100.00
17383;BME280;8809;51.892;8.384;2024-02-16T10:51:53;100283.63;;;16.45;100.00
17383;BME280;8809;51.892;8.384;2024-02-16T10:54:25;100284.47;;;16.41;100.00
17383;BME280;8809;51.892;8.384;2024-02-16T10:56:58;100282.66;;;16.37;100.00
17383;BME280;8809;51.892;8.384;2024-02-16T10:59:26;100286.13;;;16.33;100.00
17383;BME280;8809;51.892;8.384;2024-02-16T11:02:00;100293.13;;;16.31;100.00
17383;BME280;8809;51.892;8.384;2024-02-16T11:04:36;100291.22;;;16.21;100.00
17383;BME280;8809;51.892;8.384;2024-02-16T11:07:10;100290.25;;;16.13;100.00
17383;BME280;8809;51.892;8.384;2024-02-16T11:09:39;100292.00;;;16.14;100.00
17383;BME280;8809;51.892;8.384;2024-02-16T11:12:08;100293.75;;;16.13;100.00
17383;BME280;8809;51.892;8.384;2024-02-16T11:14:39;100298.94;;;16.09;100.00
17383;BME280;8809;51.892;8.384;2024-02-16T11:17:10;100289.38;;;16.15;100.00
17383;BME280;8809;51.892;8.384;2024-02-16T11:19:37;100298.91;;;16.07;100.00
17383;BME280;8809;51.892;8.384;2024-02-16T11:22:05;100296.31;;;16.09;100.00
17383;BME280;8809;51.892;8.384;2024-02-16T11:24:35;100293.69;;;16.09;100.00
17383;BME280;8809;51.892;8.384;2024-02-16T11:27:02;100289.38;;;16.15;100.00
17383;BME280;8809;51.892;8.384;2024-02-16T11:29:33;100292.06;;;16.18;100.00
17383;BME280;8809;51.892;8.384;2024-02-16T11:32:02;100298.28;;;16.25;100.00
17383;BME280;8809;51.892;8.384;2024-02-16T11:34:30;100301.91;;;16.31;100.00
17383;BME280;8809;51.892;8.384;2024-02-16T11:36:58;100307.19;;;16.33;100.00
17383;BME280;8809;51.892;8.384;2024-02-16T11:39:25;100302.78;;;16.32;100.00
17383;BME280;8809;51.892;8.384;2024-02-16T11:41:59;100308.16;;;16.40;100.00
17383;BME280;8809;51.892;8.384;2024-02-16T11:44:27;100303.81;;;16.43;100.00
17383;BME280;8809;51.892;8.384;2024-02-16T11:46:59;100298.41;;;16.34;100.00
17383;BME280;8809;51.892;8.384;2024-02-16T11:49:28;100300.22;;;16.38;100.00
17383;BME280;8809;51.892;8.384;2024-02-16T11:51:59;100307.34;;;16.45;100.00
17383;BME280;8809;51.892;8.384;2024-02-16T11:54:46;100307.41;;;16.50;100.00
17383;BME280;8809;51.892;8.384;2024-02-16T11:57:16;100303.88;;;16.48;100.00
17383;BME280;8809;51.892;8.384;2024-02-16T11:59:43;100310.81;;;16.44;100.00
17383;BME280;8809;51.892;8.384;2024-02-16T12:02:16;100311.75;;;16.46;100.00
17383;BME280;8809;51.892;8.384;2024-02-16T12:04:44;100312.69;;;16.50;100.00
17383;BME280;8809;51.892;8.384;2024-02-16T12:07:12;100324.19;;;16.58;100.00
17383;BME280;8809;51.892;8.384;2024-02-16T12:09:39;100310.88;;;16.47;100.00
17383;BME280;8809;51.892;8.384;2024-02-16T12:12:07;100314.44;;;16.51;100.00
17383;BME280;8809;51.892;8.384;2024-02-16T12:14:34;100313.56;;;16.53;100.00
17383;BME280;8809;51.892;8.384;2024-02-16T12:17:03;100318.00;;;16.53;100.00
17383;BME280;8809;51.892;8.384;2024-02-16T12:19:31;100316.25;;;16.55;100.00
17383;BME280;8809;51.892;8.384;2024-02-16T12:21:58;100315.44;;;16.60;100.00
17383;BME280;8809;51.892;8.384;2024-02-16T12:24:25;100312.88;;;16.63;100.00
17383;BME280;8809;51.892;8.384;2024-02-16T12:26:52;100319.75;;;16.52;100.00
17383;BME280;8809;51.892;8.384;2024-02-16T12:29:20;100321.66;;;16.62;100.00
17383;BME280;8809;51.892;8.384;2024-02-16T12:31:47;100323.50;;;16.73;100.00
17383;BME280;8809;51.892;8.384;2024-02-16T12:34:15;100330.50;;;16.69;100.00
17383;BME280;8809;51.892;8.384;2024-02-16T12:36:43;100335.06;;;16.81;100.00
17383;BME280;8809;51.892;8.384;2024-02-16T12:39:11;100325.28;;;16.72;100.00
17383;BME280;8809;51.892;8.384;2024-02-16T12:41:40;100327.97;;;16.77;100.00
17383;BME280;8809;51.892;8.384;2024-02-16T12:44:08;100326.19;;;16.76;100.00
17383;BME280;8809;51.892;8.384;2024-02-16T12:46:35;100323.59;;;16.77;100.00
17383;BME280;8809;51.892;8.384;2024-02-16T12:49:04;100329.75;;;16.78;100.00
17383;BME280;8809;51.892;8.384;2024-02-16T12:51:31;100320.97;;;16.79;100.00
17383;BME280;8809;51.892;8.384;2024-02-16T12:54:00;100322.75;;;16.80;100.00